Vinegar Bend, Alabama
Current Conditions -  °F | °C
As of 3:56 PM on Thursday 23 Oct 2014 (Local Time) from KMOB Reporting Station
Scattered Clouds Scattered Clouds  
Wind Chill: 74°   Ceiling: Unl
Heat Index: 74°   Visibility: 10mi
Dew Point: 42°   Wind: 3mph
Humidity: 32%   Direction: 330°NNW
Pressure: 30.04"   Gusts: NA
Location:  31.26°N, 88.34°W
Report Text: KMOB 232056Z 33003KT 10SM SCT250 23/06 A3004 RMK AO2 SLP170 T02330056 56019
Loading
Personal Weather Stations






























Interactive Weather Map
Tropical Storm Tracking
New forecast layout! Learn more

10-Day Weather Forecast

Advertisements
Track Severe Weather on mobile